CheckWX is a tool to help pilots better visualize weather data.  It is not intended as a substitute for an official pre-flight weather briefing.

20:11:39 UTC

KMAW METAR
Malden Regional Airport
Malden, Missouri, USA
Current

57 mins ago

KMAW 231915Z AUTO 21008KT 10SM CLR 25/15 A3002 RMK AO2
Observed
Apr-23 @ 19:15 UTC
Wind
  • 210° at 8 KTS
Visibility
10 SM
Flight Rules
VFR
Cloud Levels
  • Clear skies
Temperature
25°C / 77°F
Dewpoint
15°C / 59°F
Humidity
54%
Altimeter
30.02" Hg
Pressure
1016.62 hPa
Previous

1 hour ago

KMAW 231855Z AUTO 21008KT 10SM CLR 25/15 A3003 RMK AO2
Observed
Apr-23 @ 18:55 UTC
Wind
  • 210° at 8 KTS
Visibility
10 SM
Flight Rules
VFR
Cloud Levels
  • Clear skies
Temperature
25°C / 77°F
Dewpoint
15°C / 59°F
Humidity
54%
Altimeter
30.03" Hg
Pressure
1016.92 hPa
Previous

2 hours ago

KMAW 231835Z AUTO 19008KT 10SM CLR 25/15 A3004 RMK AO2
Observed
Apr-23 @ 18:35 UTC
Wind
  • 190° at 8 KTS
Visibility
10 SM
Flight Rules
VFR
Cloud Levels
  • Clear skies
Temperature
25°C / 77°F
Dewpoint
15°C / 59°F
Humidity
54%
Altimeter
30.04" Hg
Pressure
1017.32 hPa